MST,Max TemperatureF,Mean TemperatureF,Min TemperatureF,Max Dew PointF,MeanDew PointF,Min DewpointF,Max Humidity, Mean Humidity, Min Humidity, Max Sea Level PressureIn, Mean Sea Level PressureIn, Min Sea Level PressureIn, Max VisibilityMiles, Mean VisibilityMiles, Min VisibilityMiles, Max Wind SpeedMPH, Mean Wind SpeedMPH, Max Gust SpeedMPH,PrecipitationIn, CloudCover, Events, WindDirDegrees
2013-1-1,29,17,4,19,12,2,80,67,53,30.34,30.22,30.08,10,8,1,23,11,28,T,5,Snow,305
2013-1-2,27,17,6,19,12,0,84,67,50,30.48,30.28,30.12,10,9,1,29,16,36,T,6,Snow,305
2013-1-3,36,19,1,12,2,-5,79,57,35,30.48,30.41,30.32,10,10,10,16,7,20,0.00,0,,316
2013-1-4,39,19,-1,17,5,-4,79,59,38,30.38,30.30,30.17,10,10,3,17,5,22,0.00,0,,320
2013-1-5,34,18,2,14,5,-1,83,63,43,30.48,30.38,30.25,10,10,10,22,9,28,0.00,0,,323
2013-1-6,49,22,-5,15,5,-8,86,54,22,30.37,30.18,30.03,10,10,10,31,6,37,0.00,0,,269
2013-1-7,46,28,10,17,10,2,67,46,25,30.12,29.95,29.74,10,10,10,25,7,30,0.00,0,,268
2013-1-8,45,33,21,20,18,16,77,55,33,30.20,29.96,29.74,10,10,10,37,14,43,0.00,1,,288
2013-1-9,59,42,24,23,17,13,74,46,18,30.29,30.09,29.87,10,10,10,24,8,30,0.00,0,,201
2013-1-10,54,38,21,17,14,8,63,40,17,29.84,29.63,29.43,10,10,10,25,8,32,0.00,0,,219
2013-1-11,27,17,6,21,7,-4,96,77,58,30.07,29.64,29.41,10,7,1,33,17,45,T,7,Snow,332
2013-1-12,12,7,2,3,0,-3,87,75,63,30.27,30.09,29.87,10,4,2,28,12,35,T,8,Snow,317
2013-1-13,12,5,-2,1,-3,-7,87,74,61,30.38,30.30,30.04,10,10,5,14,6,18,T,7,Snow,325
2013-1-14,16,2,-13,-1,-9,-15,87,67,46,30.45,30.35,30.27,10,10,10,21,6,25,0.00,1,,298
2013-1-15,32,14,-4,17,10,-7,69,59,49,30.26,30.21,30.14,10,10,10,26,15,32,T,8,,316
2013-1-16,45,30,15,18,14,8,74,51,28,30.46,30.29,30.17,10,10,10,30,12,37,0.00,1,,321
2013-1-17,49,29,8,14,10,4,76,49,21,30.61,30.42,30.19,10,10,10,18,4,23,0.00,0,,297
2013-1-18,53,38,22,10,8,5,46,31,15,30.19,30.07,29.96,10,10,10,33,14,40,0.00,0,,306
2013-1-19,52,38,23,12,8,4,55,35,14,30.26,30.17,30.00,10,10,10,28,9,35,0.00,0,,316
2013-1-20,34,21,7,18,12,3,84,62,39,30.45,30.33,30.13,10,10,10,21,7,25,0.00,2,,341
2013-1-21,52,28,4,17,8,2,88,52,16,30.38,30.19,30.02,10,10,9,32,9,41,0.00,0,,302
2013-1-22,54,37,19,8,5,-1,47,29,11,30.18,30.10,30.02,10,10,10,23,7,28,0.00,0,,311
2013-1-23,53,39,24,10,5,-2,50,32,13,30.16,30.09,30.03,10,10,10,20,5,26,0.00,0,,90
2013-1-24,58,42,26,28,20,9,78,51,24,30.11,29.98,29.86,10,10,10,44,15,52,0.00,0,,295
2013-1-25,56,38,20,27,23,17,91,59,27,30.19,30.10,29.97,10,10,10,23,10,28,0.00,0,,275
2013-1-26,58,45,32,27,25,22,64,46,28,29.96,29.84,29.68,10,10,9,28,10,33,0.00,1,,275
2013-1-27,55,43,31,29,26,23,72,54,35,29.75,29.68,29.64,10,10,10,16,7,20,0.00,6,,332
2013-1-28,37,28,19,27,23,13,92,73,54,29.85,29.74,29.64,10,5,0,20,7,24,0.01,8,Fog-Snow,326
2013-1-29,29,16,2,18,9,0,91,72,53,30.22,29.96,29.84,10,9,2,30,13,39,T,4,Snow,320
2013-1-30,35,18,0,19,12,-3,87,69,50,30.09,29.97,29.87,10,10,10,29,12,33,0.00,6,,314
2013-1-31,28,22,16,21,16,9,88,80,71,30.28,30.12,29.91,10,7,0,20,7,25,0.01,8,Snow,321